Allen, Michigan
Current Conditions -  °F | °C
As of 9:15 PM on Sunday 25 Jan 2015 (Local Time) from KJYM Reporting Station
Broken Clouds Broken Clouds  
Wind Chill:   Ceiling: 9000
Heat Index: 20°   Visibility: 10mi
Dew Point:   Wind: 12mph
Humidity: 56%   Direction: 60°ENE
Pressure: 29.91"   Gusts: NA
Location:  41.96°N, 84.77°W
Report Text: KJYM 260215Z AUTO 06010KT 10SM BKN090 120 M07/M14 A2991 RMK AO2 T10671142
Loading
Personal Weather Stations






























Interactive Weather Map New forecast layout! Learn more

10-Day Weather Forecast

Advertisements
Track Severe Weather on mobile